createdAt,value
2016-11-06T00:00:22.161Z,6.7
2016-11-06T00:01:23.603Z,6.7
2016-11-06T00:02:25.188Z,6.7
2016-11-06T00:03:26.627Z,6.7
2016-11-06T00:04:28.569Z,6.7
2016-11-06T00:05:30.013Z,6.7
2016-11-06T00:06:31.447Z,6.7
2016-11-06T00:07:32.887Z,6.7
2016-11-06T00:08:34.838Z,6.7
2016-11-06T00:09:36.278Z,6.7
2016-11-06T00:10:37.714Z,6.7
2016-11-06T00:11:39.155Z,6.7
2016-11-06T00:12:41.096Z,6.7
2016-11-06T00:13:42.535Z,6.7
2016-11-06T00:14:44.005Z,6.7
2016-11-06T00:15:45.445Z,6.7
2016-11-06T00:16:47.384Z,18
2016-11-06T00:17:48.818Z,6.7
2016-11-06T00:18:50.257Z,6.7
2016-11-06T00:19:51.694Z,6.6
2016-11-06T00:20:53.631Z,6.6
2016-11-06T00:21:55.069Z,6.6
2016-11-06T00:22:56.508Z,6.6
2016-11-06T00:23:58.453Z,6.6
2016-11-06T00:24:59.896Z,6.6
2016-11-06T00:26:01.330Z,6.6
2016-11-06T00:27:02.771Z,6.6
2016-11-06T00:28:04.220Z,6.6
2016-11-06T00:29:06.165Z,6.6
2016-11-06T00:30:07.607Z,6.6
2016-11-06T00:31:09.047Z,6.6
2016-11-06T00:32:10.499Z,6.6
2016-11-06T00:33:12.442Z,6.6
2016-11-06T00:34:13.914Z,6.6
2016-11-06T00:35:15.356Z,6.6
2016-11-06T00:36:16.797Z,6.6
2016-11-06T00:37:18.739Z,6.6
2016-11-06T00:38:20.179Z,6.5
2016-11-06T00:39:21.651Z,6.5
2016-11-06T00:40:23.087Z,6.5
2016-11-06T00:41:25.036Z,6.5
2016-11-06T00:42:26.479Z,6.5
2016-11-06T00:43:27.916Z,6.5
2016-11-06T00:44:29.392Z,6.5
2016-11-06T00:45:30.836Z,6.5
2016-11-06T00:46:32.783Z,6.5
2016-11-06T00:47:34.219Z,6.5
2016-11-06T00:48:35.657Z,6.5
2016-11-06T00:49:37.161Z,6.5
2016-11-06T00:50:38.857Z,6.5
2016-11-06T00:51:40.296Z,6.5
2016-11-06T00:52:42.239Z,6.5
2016-11-06T00:53:43.678Z,6.5
2016-11-06T00:55:46.521Z,6.5
2016-11-06T00:56:48.463Z,6.5
2016-11-06T00:58:51.304Z,6.5
2016-11-06T00:59:52.757Z,6.5
2016-11-06T01:00:54.706Z,6.5
2016-11-06T01:01:56.146Z,6.5
2016-11-06T01:02:57.619Z,6.4
2016-11-06T01:03:59.058Z,6.4
2016-11-06T01:05:00.493Z,6.4
2016-11-06T01:06:02.437Z,6.4
2016-11-06T01:07:03.884Z,6.4
2016-11-06T01:08:05.320Z,6.4
2016-11-06T01:09:06.762Z,6.4
2016-11-06T01:11:10.113Z,6.4
2016-11-06T01:12:11.552Z,6.4
2016-11-06T01:13:12.993Z,6.4
2016-11-06T01:14:14.935Z,6.4
2016-11-06T01:15:16.374Z,6.4
2016-11-06T01:16:17.815Z,6.4
2016-11-06T01:17:19.287Z,6.4
2016-11-06T01:18:21.236Z,6.4
2016-11-06T01:19:22.676Z,6.4
2016-11-06T01:20:24.119Z,6.4
2016-11-06T01:21:25.558Z,6.4
2016-11-06T01:22:26.995Z,6.4
2016-11-06T01:23:28.940Z,6.4
2016-11-06T01:24:30.382Z,6.4
2016-11-06T01:25:31.825Z,6.4
2016-11-06T01:26:33.272Z,6.4
2016-11-06T01:27:35.213Z,6.4
2016-11-06T01:28:36.654Z,6.4
2016-11-06T01:29:38.092Z,6.4
2016-11-06T01:30:39.806Z,6.4
2016-11-06T01:31:41.250Z,6.3
2016-11-06T01:33:44.631Z,6.3
2016-11-06T01:34:46.069Z,6.3
2016-11-06T01:35:47.513Z,6.3
2016-11-06T01:36:48.957Z,6.3
2016-11-06T01:37:50.394Z,6.3
2016-11-06T01:38:52.334Z,6.3
2016-11-06T01:39:53.780Z,6.3
2016-11-06T01:40:55.231Z,6.3
2016-11-06T01:41:56.671Z,6.3
2016-11-06T01:42:58.612Z,6.3
2016-11-06T01:44:00.057Z,6.3
2016-11-06T01:45:01.498Z,6.3
2016-11-06T01:46:02.938Z,6.3
2016-11-06T01:47:04.878Z,6.3
2016-11-06T01:48:06.321Z,6.3
2016-11-06T01:49:07.763Z,6.3
2016-11-06T01:50:09.211Z,6.3
2016-11-06T01:51:10.650Z,6.3
2016-11-06T01:52:12.604Z,6.3
2016-11-06T01:53:14.038Z,6.2
2016-11-06T01:54:15.478Z,6.2
2016-11-06T01:55:16.919Z,6.2
2016-11-06T01:56:18.862Z,6.2
2016-11-06T01:57:20.300Z,6.2
2016-11-06T01:58:21.756Z,6.2
2016-11-06T01:59:23.241Z,6.2
2016-11-06T02:00:24.679Z,6.2
2016-11-06T02:01:26.620Z,6.2
2016-11-06T02:02:28.065Z,6.2
2016-11-06T02:03:29.502Z,6.2
2016-11-06T02:04:30.943Z,6.2
2016-11-06T02:05:32.921Z,6.2
2016-11-06T02:06:34.360Z,6.2
2016-11-06T02:07:35.800Z,6.2
2016-11-06T02:08:37.241Z,6.1
2016-11-06T02:09:38.679Z,6.1
2016-11-06T02:11:42.030Z,6.1
2016-11-06T02:12:43.469Z,6.1
2016-11-06T02:13:44.906Z,6.1
2016-11-06T02:14:46.845Z,6.1
2016-11-06T02:15:48.289Z,6.1
2016-11-06T02:16:49.727Z,6.1
2016-11-06T02:17:51.167Z,6.1
2016-11-06T02:18:52.644Z,6
2016-11-06T02:19:54.592Z,6
2016-11-06T02:20:56.036Z,6
2016-11-06T02:21:57.479Z,6
2016-11-06T02:22:58.928Z,6.1
2016-11-06T02:24:00.368Z,6
2016-11-06T02:25:02.325Z,6
2016-11-06T02:26:03.764Z,6
2016-11-06T02:27:05.206Z,6
2016-11-06T02:28:06.648Z,6
2016-11-06T02:29:08.598Z,6
2016-11-06T02:30:10.036Z,6
2016-11-06T02:31:11.479Z,6
2016-11-06T02:32:12.921Z,6
2016-11-06T02:33:14.359Z,6
2016-11-06T02:34:16.306Z,6
2016-11-06T02:35:17.753Z,6
2016-11-06T02:36:19.193Z,6
2016-11-06T02:37:20.642Z,6
2016-11-06T02:38:22.078Z,6
2016-11-06T02:39:24.014Z,6
2016-11-06T02:40:25.453Z,6
2016-11-06T02:41:26.905Z,6
2016-11-06T02:42:28.343Z,6
2016-11-06T02:43:30.283Z,6
2016-11-06T02:44:31.722Z,6
2016-11-06T02:45:33.158Z,6
2016-11-06T02:46:34.605Z,6
2016-11-06T02:47:36.052Z,5.9
2016-11-06T02:49:39.529Z,6
2016-11-06T02:50:40.976Z,5.9
2016-11-06T02:51:42.553Z,5.9
2016-11-06T02:52:43.992Z,5.9
2016-11-06T02:53:45.433Z,5.9
2016-11-06T02:54:46.869Z,5.9
2016-11-06T02:55:48.817Z,5.9
2016-11-06T02:56:50.256Z,5.9
2016-11-06T02:57:51.689Z,5.9
2016-11-06T02:58:53.123Z,5.9
2016-11-06T02:59:54.597Z,5.9
2016-11-06T03:00:56.545Z,5.9
2016-11-06T03:01:57.990Z,5.9
2016-11-06T03:02:59.459Z,5.9
2016-11-06T03:04:00.899Z,5.9
2016-11-06T03:05:02.340Z,5.9
2016-11-06T03:06:04.286Z,5.9
2016-11-06T03:07:05.729Z,5.9
2016-11-06T03:08:07.203Z,5.9
2016-11-06T03:09:08.650Z,5.9
2016-11-06T03:10:10.158Z,5.9
2016-11-06T03:11:11.596Z,5.9
2016-11-06T03:12:13.542Z,5.9
2016-11-06T03:13:14.989Z,5.9
2016-11-06T03:14:16.432Z,5.9
2016-11-06T03:15:17.872Z,5.9
2016-11-06T03:16:19.818Z,5.9
2016-11-06T03:17:21.270Z,5.9
2016-11-06T03:18:22.719Z,5.9
2016-11-06T03:19:24.160Z,5.9
2016-11-06T03:20:25.597Z,5.9
2016-11-06T03:21:27.570Z,5.9
2016-11-06T03:22:29.015Z,5.9
2016-11-06T03:24:31.860Z,5.9
2016-11-06T03:25:33.302Z,5.9
2016-11-06T03:27:36.648Z,5.9
2016-11-06T03:28:38.086Z,5.8
2016-11-06T03:29:39.526Z,5.8
2016-11-06T03:30:41.538Z,5.8
2016-11-06T03:31:42.980Z,5.8
2016-11-06T03:32:44.420Z,5.8
2016-11-06T03:33:45.867Z,5.8
2016-11-06T03:34:47.309Z,5.8
2016-11-06T03:35:48.746Z,5.8
2016-11-06T03:36:50.688Z,5.8
2016-11-06T03:37:52.161Z,5.8
2016-11-06T03:38:53.605Z,5.8
2016-11-06T03:39:55.051Z,5.8
2016-11-06T03:40:56.493Z,5.8
2016-11-06T03:41:58.434Z,5.8
2016-11-06T03:43:00.010Z,5.7
2016-11-06T03:44:01.184Z,5.7
2016-11-06T03:45:02.624Z,5.8
2016-11-06T03:46:04.573Z,5.7
2016-11-06T03:47:06.015Z,5.7
2016-11-06T03:48:07.458Z,5.7
2016-11-06T03:49:08.895Z,5.7
2016-11-06T03:50:10.331Z,5.7
2016-11-06T03:51:12.270Z,5.7
2016-11-06T03:52:13.713Z,5.7
2016-11-06T03:54:16.557Z,5.7
2016-11-06T03:55:18.500Z,5.7
2016-11-06T03:56:19.939Z,5.7
2016-11-06T03:57:21.408Z,5.7
2016-11-06T03:59:24.248Z,5.7
2016-11-06T04:00:26.187Z,5.7
2016-11-06T04:01:27.624Z,5.7
2016-11-06T04:02:29.059Z,5.7
2016-11-06T04:03:30.498Z,5.7
2016-11-06T04:04:31.937Z,5.7
2016-11-06T04:05:33.882Z,5.7
2016-11-06T04:06:35.325Z,5.7
2016-11-06T04:07:36.763Z,5.7
2016-11-06T04:08:38.202Z,5.7
2016-11-06T04:09:39.643Z,5.7
2016-11-06T04:10:41.588Z,5.6
2016-11-06T04:11:43.025Z,5.7
2016-11-06T04:12:44.462Z,5.6
2016-11-06T04:13:46.037Z,5.6
2016-11-06T04:14:47.476Z,5.6
2016-11-06T04:15:49.047Z,5.6
2016-11-06T04:16:50.485Z,5.6
2016-11-06T04:17:51.927Z,5.6
2016-11-06T04:18:53.869Z,5.6
2016-11-06T04:19:55.349Z,5.6
2016-11-06T04:20:56.788Z,5.6
2016-11-06T04:21:58.229Z,5.6
2016-11-06T04:22:59.672Z,5.6
2016-11-06T04:24:01.619Z,5.6
2016-11-06T04:25:03.059Z,5.6
2016-11-06T04:26:04.498Z,5.6
2016-11-06T04:27:05.973Z,5.6
2016-11-06T04:28:07.412Z,5.5
2016-11-06T04:29:08.861Z,5.5
2016-11-06T04:30:10.809Z,5.6
2016-11-06T04:31:12.246Z,5.5
2016-11-06T04:32:13.685Z,5.5
2016-11-06T04:34:17.042Z,5.5
2016-11-06T04:35:18.498Z,5.5
2016-11-06T04:36:19.934Z,5.5
2016-11-06T04:37:21.373Z,5.5
2016-11-06T04:38:22.813Z,5.5
2016-11-06T04:39:24.256Z,5.5
2016-11-06T04:41:27.596Z,5.5
2016-11-06T04:42:29.037Z,5.5
2016-11-06T04:44:32.384Z,5.5
2016-11-06T04:45:33.823Z,5.5
2016-11-06T04:46:35.263Z,5.5
2016-11-06T04:47:36.697Z,5.5
2016-11-06T04:48:38.137Z,5.5
2016-11-06T04:49:40.072Z,5.5
2016-11-06T04:50:41.510Z,5.5
2016-11-06T04:51:42.945Z,5.4
2016-11-06T04:52:44.382Z,5.4
2016-11-06T04:53:45.879Z,5.4
2016-11-06T04:54:47.320Z,5.4
2016-11-06T04:55:49.297Z,5.4
2016-11-06T04:56:50.735Z,5.4
2016-11-06T04:57:52.171Z,5.4
2016-11-06T04:58:53.649Z,5.4
2016-11-06T05:01:58.400Z,5.4
2016-11-06T05:02:59.833Z,5.4
2016-11-06T05:04:01.269Z,5.4
2016-11-06T05:05:02.706Z,5.4
2016-11-06T05:06:04.141Z,5.4
2016-11-06T05:07:06.083Z,5.4
2016-11-06T05:09:08.924Z,5.4
2016-11-06T05:10:10.359Z,5.3
2016-11-06T05:11:12.301Z,5.3
2016-11-06T05:12:13.744Z,5.3
2016-11-06T05:13:15.181Z,5.3
2016-11-06T05:14:16.615Z,5.3
2016-11-06T05:15:18.047Z,5.3
2016-11-06T05:16:19.490Z,5.3
2016-11-06T05:17:21.432Z,5.3
2016-11-06T05:18:22.869Z,5.3
2016-11-06T05:19:24.304Z,5.3
2016-11-06T05:20:25.745Z,5.3
2016-11-06T05:21:27.322Z,5.3
2016-11-06T05:22:28.764Z,5.2
2016-11-06T05:23:30.206Z,5.2
2016-11-06T05:24:32.153Z,5.2
2016-11-06T05:25:33.590Z,5.2
2016-11-06T05:26:35.033Z,5.2
2016-11-06T05:27:36.472Z,5.2
2016-11-06T05:28:37.911Z,5.2
2016-11-06T05:29:39.856Z,5.2
2016-11-06T05:30:41.294Z,5.2
2016-11-06T05:31:42.865Z,5.2
2016-11-06T05:32:44.309Z,5.2
2016-11-06T05:33:45.747Z,5.2
2016-11-06T05:34:47.185Z,5.2
2016-11-06T05:35:48.620Z,5.2
2016-11-06T05:36:51.283Z,5.2
2016-11-06T05:37:51.712Z,5.2
2016-11-06T05:38:53.153Z,5.2
2016-11-06T05:40:56.494Z,5.2
2016-11-06T05:41:57.933Z,5.2
2016-11-06T05:42:59.407Z,5.2
2016-11-06T05:44:00.850Z,5.2
2016-11-06T05:46:04.207Z,5.2
2016-11-06T05:47:05.640Z,5.2
2016-11-06T05:48:07.081Z,5.1
2016-11-06T05:49:08.520Z,5.1
2016-11-06T05:50:09.964Z,5.1
2016-11-06T05:51:11.949Z,5.1
2016-11-06T05:52:13.389Z,5.1
2016-11-06T05:53:14.830Z,5.1
2016-11-06T05:54:16.267Z,5.1
2016-11-06T05:55:17.717Z,5.1
2016-11-06T05:56:19.159Z,5.1
2016-11-06T05:57:21.101Z,5.1
2016-11-06T05:58:22.548Z,5.1
2016-11-06T05:59:23.993Z,5.1
2016-11-06T06:00:25.437Z,5.1
2016-11-06T06:01:26.887Z,5.1
2016-11-06T06:02:28.326Z,5.1
2016-11-06T06:03:30.321Z,5.1
2016-11-06T06:04:31.759Z,5.1
2016-11-06T06:05:33.195Z,5
2016-11-06T06:07:36.030Z,5
2016-11-06T06:08:37.473Z,5
2016-11-06T06:09:39.414Z,5
2016-11-06T06:10:40.853Z,5
2016-11-06T06:12:43.707Z,5
2016-11-06T06:13:45.281Z,5
2016-11-06T06:14:46.719Z,5
2016-11-06T06:15:48.159Z,5
2016-11-06T06:16:49.599Z,5
2016-11-06T06:17:51.543Z,4.9
2016-11-06T06:18:52.982Z,4.9
2016-11-06T06:19:54.420Z,4.9
2016-11-06T06:20:55.858Z,4.9
2016-11-06T06:21:57.292Z,4.9
2016-11-06T06:22:58.732Z,4.9
2016-11-06T06:24:00.670Z,4.9
2016-11-06T06:25:02.244Z,4.9
2016-11-06T06:26:03.678Z,4.9
2016-11-06T06:27:05.115Z,4.9
2016-11-06T06:28:06.556Z,4.9
2016-11-06T06:29:08.001Z,4.9
2016-11-06T06:30:09.444Z,4.9
2016-11-06T06:31:11.395Z,4.9
2016-11-06T06:32:12.834Z,4.8
2016-11-06T06:33:14.276Z,4.9
2016-11-06T06:34:15.714Z,4.8
2016-11-06T06:35:17.148Z,4.8
2016-11-06T06:36:18.589Z,4.8
2016-11-06T06:37:20.029Z,4.8
2016-11-06T06:38:21.967Z,4.8
2016-11-06T06:39:23.404Z,4.8
2016-11-06T06:40:24.839Z,4.8
2016-11-06T06:41:26.282Z,4.8
2016-11-06T06:42:27.727Z,4.8
2016-11-06T06:43:29.170Z,4.8
2016-11-06T06:44:31.117Z,4.9
2016-11-06T06:45:32.554Z,4.9
2016-11-06T06:46:33.989Z,4.9
2016-11-06T06:47:35.425Z,4.9
2016-11-06T06:48:36.864Z,4.9
2016-11-06T06:49:38.305Z,4.9
2016-11-06T06:50:40.254Z,4.9
2016-11-06T06:51:41.698Z,4.9
2016-11-06T06:52:43.141Z,4.9
2016-11-06T06:53:44.576Z,4.9
2016-11-06T06:54:46.018Z,4.9
2016-11-06T06:55:47.456Z,5
2016-11-06T06:56:48.901Z,5
2016-11-06T06:57:50.849Z,5
2016-11-06T06:58:52.286Z,5
2016-11-06T06:59:53.721Z,5
2016-11-06T07:01:56.626Z,5
2016-11-06T07:02:58.060Z,5
2016-11-06T07:04:00.003Z,5
2016-11-06T07:05:01.437Z,5
2016-11-06T07:06:02.986Z,5
2016-11-06T07:07:04.423Z,5.1
2016-11-06T07:08:05.860Z,5.1
2016-11-06T07:09:07.297Z,5.1
2016-11-06T07:10:08.736Z,5.1
2016-11-06T07:11:10.678Z,5.1
2016-11-06T07:12:12.120Z,5.1
2016-11-06T07:14:14.967Z,5.1
2016-11-06T07:15:16.407Z,5.1
2016-11-06T07:16:17.845Z,5.1
2016-11-06T07:17:19.784Z,5.2
2016-11-06T07:18:23.642Z,5.2
2016-11-06T07:19:22.564Z,5.2
2016-11-06T07:20:24.005Z,5.2
2016-11-06T07:21:25.443Z,5.2
2016-11-06T07:22:27.388Z,5.2
2016-11-06T07:23:28.828Z,5.3
2016-11-06T07:24:30.269Z,5.3
2016-11-06T07:25:31.705Z,5.3
2016-11-06T07:26:33.143Z,5.3
2016-11-06T07:27:35.083Z,5.3
2016-11-06T07:28:36.530Z,5.3
2016-11-06T07:29:38.184Z,5.3
2016-11-06T07:30:39.491Z,5.4
2016-11-06T07:32:42.405Z,5.4
2016-11-06T07:33:43.843Z,5.4
2016-11-06T07:34:45.547Z,5.4
2016-11-06T07:35:46.990Z,5.4
2016-11-06T07:36:48.429Z,5.4
2016-11-06T07:37:50.374Z,5.5
2016-11-06T07:39:53.271Z,5.5
2016-11-06T07:41:56.129Z,5.5
2016-11-06T07:42:57.564Z,5.5
2016-11-06T07:43:59.509Z,5.5
2016-11-06T07:45:00.955Z,5.6
2016-11-06T07:46:02.402Z,5.6
2016-11-06T07:47:03.938Z,5.6
2016-11-06T07:48:05.374Z,5.6
2016-11-06T07:49:06.813Z,5.6
2016-11-06T07:50:08.752Z,5.6
2016-11-06T07:51:10.190Z,5.7
2016-11-06T07:52:11.629Z,5.7
2016-11-06T07:53:13.067Z,5.7
2016-11-06T07:54:14.508Z,5.7
2016-11-06T07:55:16.449Z,5.7
2016-11-06T07:56:17.886Z,5.7
2016-11-06T07:57:19.325Z,5.8
2016-11-06T07:58:20.772Z,5.8
2016-11-06T07:59:22.213Z,5.8
2016-11-06T08:00:24.153Z,5.8
2016-11-06T08:01:25.591Z,5.8
2016-11-06T08:02:27.032Z,5.9
2016-11-06T08:03:28.475Z,5.9
2016-11-06T08:04:29.919Z,5.9
2016-11-06T08:05:31.868Z,5.9
2016-11-06T08:07:34.843Z,5.9
2016-11-06T08:08:36.280Z,5.9
2016-11-06T08:09:37.720Z,5.9
2016-11-06T08:10:39.159Z,5.9
2016-11-06T08:11:41.136Z,6
2016-11-06T08:12:42.573Z,6
2016-11-06T08:13:44.009Z,6
2016-11-06T08:14:45.448Z,6
2016-11-06T08:15:46.879Z,6
2016-11-06T08:16:48.819Z,6
2016-11-06T08:17:50.255Z,6
2016-11-06T08:18:51.688Z,6.1
2016-11-06T08:19:53.124Z,6.1
2016-11-06T08:20:55.205Z,6.1
2016-11-06T08:21:56.247Z,6.1
2016-11-06T08:22:58.191Z,6.1
2016-11-06T08:23:59.279Z,6.2
2016-11-06T08:25:01.228Z,6.2
2016-11-06T08:26:02.667Z,6.2
2016-11-06T08:27:04.106Z,6.2
2016-11-06T08:28:05.546Z,6.2
2016-11-06T08:29:07.490Z,6.3
2016-11-06T08:30:08.928Z,6.3
2016-11-06T08:31:10.367Z,6.3
2016-11-06T08:32:11.804Z,6.3
2016-11-06T08:33:13.283Z,6.3
2016-11-06T08:34:15.228Z,6.3
2016-11-06T08:36:18.134Z,6.4
2016-11-06T08:37:19.572Z,6.4
2016-11-06T08:38:21.512Z,6.4
2016-11-06T08:39:22.950Z,6.4
2016-11-06T08:40:24.559Z,6.4
2016-11-06T08:41:26.038Z,6.4
2016-11-06T08:42:27.480Z,6.4
2016-11-06T08:43:28.917Z,6.4
2016-11-06T08:44:30.361Z,6.4
2016-11-06T08:45:32.306Z,6.4
2016-11-06T08:46:33.744Z,6.4
2016-11-06T08:47:35.179Z,6.4
2016-11-06T08:48:36.614Z,6.4
2016-11-06T08:50:39.963Z,6.4
2016-11-06T08:51:41.419Z,6.4
2016-11-06T08:52:42.855Z,6.4
2016-11-06T08:53:44.797Z,6.4
2016-11-06T08:54:46.239Z,6.4
2016-11-06T08:56:49.085Z,6.4
2016-11-06T08:57:51.028Z,6.4
2016-11-06T08:58:52.523Z,6.4
2016-11-06T08:59:53.962Z,6.5
2016-11-06T09:00:55.407Z,6.5
2016-11-06T09:01:56.849Z,6.5
2016-11-06T09:02:58.795Z,6.5
2016-11-06T09:04:00.274Z,6.5
2016-11-06T09:05:01.712Z,6.5
2016-11-06T09:06:03.287Z,6.5
2016-11-06T09:07:04.864Z,6.6
2016-11-06T09:08:06.303Z,6.6
2016-11-06T09:09:07.747Z,6.6
2016-11-06T09:11:11.095Z,6.6
2016-11-06T09:12:12.667Z,6.6
2016-11-06T09:13:14.108Z,6.6
2016-11-06T09:14:16.053Z,6.6
2016-11-06T09:15:17.527Z,6.7
2016-11-06T09:16:18.969Z,6.7
2016-11-06T09:17:20.413Z,6.7
2016-11-06T09:18:21.853Z,6.7
2016-11-06T09:19:23.795Z,6.7
2016-11-06T09:20:25.231Z,6.7
2016-11-06T09:21:26.673Z,6.7
2016-11-06T09:22:28.113Z,6.7
2016-11-06T09:23:30.057Z,6.7
2016-11-06T09:24:31.498Z,6.7
2016-11-06T09:26:34.380Z,6.7
2016-11-06T09:27:36.386Z,6.8
2016-11-06T09:28:37.827Z,6.8
2016-11-06T09:29:39.262Z,6.8
2016-11-06T09:30:40.703Z,6.8
2016-11-06T09:31:42.649Z,6.8
2016-11-06T09:32:44.092Z,6.8
2016-11-06T09:33:45.530Z,6.8
2016-11-06T09:34:46.976Z,6.8
2016-11-06T09:35:48.921Z,6.8
2016-11-06T09:36:50.357Z,6.9
2016-11-06T09:37:51.796Z,6.9
2016-11-06T09:38:53.269Z,6.9
2016-11-06T09:40:56.617Z,7
2016-11-06T09:41:58.060Z,7
2016-11-06T09:42:59.499Z,7
2016-11-06T09:44:01.446Z,7
2016-11-06T09:45:02.758Z,7
2016-11-06T09:46:04.200Z,7
2016-11-06T09:47:06.136Z,7
2016-11-06T09:48:07.568Z,7
2016-11-06T09:49:09.018Z,7
2016-11-06T09:50:10.496Z,7
2016-11-06T09:52:13.844Z,7
2016-11-06T09:53:15.284Z,7
2016-11-06T09:55:18.634Z,7
2016-11-06T09:56:20.081Z,7
2016-11-06T09:57:21.520Z,7
2016-11-06T09:59:24.869Z,7
2016-11-06T10:00:26.312Z,7
2016-11-06T10:01:28.258Z,7
2016-11-06T10:02:29.694Z,7
2016-11-06T10:03:31.137Z,7
2016-11-06T10:04:32.580Z,7
2016-11-06T10:05:34.522Z,7
2016-11-06T10:06:35.962Z,7
2016-11-06T10:07:37.364Z,7
2016-11-06T10:08:38.801Z,7
2016-11-06T10:09:40.742Z,7
2016-11-06T10:10:42.180Z,7
2016-11-06T10:11:43.619Z,7
2016-11-06T10:12:45.560Z,7.1
2016-11-06T10:13:46.999Z,7.1
2016-11-06T10:14:48.439Z,7.1
2016-11-06T10:15:49.876Z,7.1
2016-11-06T10:16:51.818Z,7.1
2016-11-06T10:17:53.102Z,7.1
2016-11-06T10:18:54.677Z,7.1
2016-11-06T10:19:56.661Z,7.2
2016-11-06T10:20:58.106Z,7.2
2016-11-06T10:21:59.546Z,7.2
2016-11-06T10:23:00.975Z,7.2
2016-11-06T10:24:02.919Z,7.2
2016-11-06T10:25:04.357Z,7.2
2016-11-06T10:26:05.798Z,7.2
2016-11-06T10:27:07.238Z,7.2
2016-11-06T10:28:09.178Z,7.2
2016-11-06T10:29:10.615Z,7.3
2016-11-06T10:30:12.059Z,7.3
2016-11-06T10:32:15.472Z,7.3
2016-11-06T10:33:16.941Z,7.3
2016-11-06T10:34:18.378Z,7.3
2016-11-06T10:35:20.320Z,7.3
2016-11-06T10:36:21.754Z,7.4
2016-11-06T10:37:23.187Z,7.4
2016-11-06T10:39:26.529Z,7.4
2016-11-06T10:40:27.967Z,7.4
2016-11-06T10:41:29.431Z,7.4
2016-11-06T10:42:31.371Z,7.5
2016-11-06T10:44:34.387Z,7.5
2016-11-06T10:45:35.855Z,7.5
2016-11-06T10:46:37.293Z,7.6
2016-11-06T10:47:39.299Z,7.6
2016-11-06T10:48:40.742Z,7.6
2016-11-06T10:49:42.187Z,7.6
2016-11-06T10:50:43.626Z,7.6
2016-11-06T10:51:45.571Z,7.7
2016-11-06T10:52:47.008Z,7.7
2016-11-06T10:53:48.447Z,7.7
2016-11-06T10:54:50.391Z,7.8
2016-11-06T10:55:51.827Z,7.8
2016-11-06T10:56:53.265Z,7.8
2016-11-06T10:57:55.206Z,7.8
2016-11-06T10:58:56.648Z,7.8
2016-11-06T10:59:58.084Z,7.9
2016-11-06T11:01:00.026Z,7.9
2016-11-06T11:02:01.469Z,7.9
2016-11-06T11:03:02.910Z,7.9
2016-11-06T11:05:06.258Z,7.9
2016-11-06T11:06:07.701Z,7.9
2016-11-06T11:07:09.140Z,7.9
2016-11-06T11:08:11.086Z,7.9
2016-11-06T11:09:12.526Z,7.9
2016-11-06T11:10:13.970Z,7.9
2016-11-06T11:11:15.966Z,7.9
2016-11-06T11:12:17.404Z,7.9
2016-11-06T11:13:18.839Z,7.9
2016-11-06T11:14:20.783Z,8
2016-11-06T11:15:22.254Z,8
2016-11-06T11:16:23.696Z,8
2016-11-06T11:17:25.138Z,8
2016-11-06T11:18:27.081Z,8
2016-11-06T11:19:28.517Z,8
2016-11-06T11:20:29.957Z,8
2016-11-06T11:21:31.899Z,8
2016-11-06T11:22:33.346Z,8
2016-11-06T11:23:34.794Z,8
2016-11-06T11:24:36.740Z,8
2016-11-06T11:25:37.885Z,8
2016-11-06T11:26:39.832Z,8
2016-11-06T11:27:41.272Z,8
2016-11-06T11:28:42.710Z,8.1
2016-11-06T11:29:44.647Z,8.1
2016-11-06T11:30:46.090Z,8.1
2016-11-06T11:31:47.561Z,8.1
2016-11-06T11:32:49.508Z,8.1
2016-11-06T11:33:50.949Z,8.1
2016-11-06T11:34:52.393Z,8.1
2016-11-06T11:35:54.336Z,8.2
2016-11-06T11:36:55.772Z,8.2
2016-11-06T11:38:59.114Z,8.2
2016-11-06T11:40:00.739Z,8.2
2016-11-06T11:41:02.316Z,8.2
2016-11-06T11:42:03.752Z,8.2
2016-11-06T11:43:05.195Z,8.2
2016-11-06T11:45:08.539Z,8.2
2016-11-06T11:46:09.984Z,8.2
2016-11-06T11:48:13.330Z,8.2
2016-11-06T11:49:14.772Z,8.2
2016-11-06T11:50:16.715Z,8.2
2016-11-06T11:51:18.157Z,8.2
2016-11-06T11:52:19.594Z,8.2
2016-11-06T11:53:21.533Z,8.2
2016-11-06T11:54:22.968Z,8.2
2016-11-06T11:55:24.407Z,8.2
2016-11-06T11:56:26.349Z,8.2
2016-11-06T11:57:27.917Z,8.2
2016-11-06T11:58:29.356Z,8.2
2016-11-06T11:59:30.795Z,8.2
2016-11-06T12:00:32.741Z,8.2
2016-11-06T12:01:34.185Z,8.2
2016-11-06T12:02:35.628Z,8.2
2016-11-06T12:03:37.571Z,8.2
2016-11-06T12:04:39.011Z,8.2
2016-11-06T12:05:40.450Z,8.2
2016-11-06T12:06:42.393Z,8.2
2016-11-06T12:07:43.837Z,8.3
2016-11-06T12:08:45.277Z,8.3
2016-11-06T12:09:47.214Z,8.3
2016-11-06T12:10:48.665Z,8.3
2016-11-06T12:11:50.066Z,8.3
2016-11-06T12:12:52.014Z,8.3
2016-11-06T12:13:53.452Z,8.3
2016-11-06T12:14:54.888Z,8.3
2016-11-06T12:15:56.830Z,8.2
2016-11-06T12:16:58.275Z,8.2
2016-11-06T12:17:59.711Z,8.2
2016-11-06T12:19:01.338Z,8.2
2016-11-06T12:20:03.350Z,8.2
2016-11-06T12:21:04.923Z,8.2
2016-11-06T12:22:06.367Z,8.2
2016-11-06T12:23:07.802Z,8.2
2016-11-06T12:24:09.741Z,8.2
2016-11-06T12:25:11.176Z,8.2
2016-11-06T12:26:12.615Z,8.2
2016-11-06T12:28:15.965Z,8.2
2016-11-06T12:29:17.409Z,8.2
2016-11-06T12:30:19.351Z,8.2
2016-11-06T12:31:20.791Z,8.2
2016-11-06T12:32:22.228Z,8.2
2016-11-06T12:33:24.167Z,8.2
2016-11-06T12:34:25.615Z,8.2
2016-11-06T12:35:27.063Z,8.2
2016-11-06T12:36:29.068Z,8.2
2016-11-06T12:37:30.507Z,8.1
2016-11-06T12:38:31.951Z,8.1
2016-11-06T12:39:33.898Z,8.1
2016-11-06T12:40:35.336Z,8.1
2016-11-06T12:41:36.778Z,8.1
2016-11-06T12:42:38.229Z,8.1
2016-11-06T12:43:40.182Z,8.1
2016-11-06T12:44:41.617Z,8.1
2016-11-06T12:45:43.050Z,8.1
2016-11-06T12:46:44.993Z,8
2016-11-06T12:47:46.434Z,8
2016-11-06T12:48:47.878Z,8
2016-11-06T12:49:49.820Z,8
2016-11-06T12:50:51.401Z,8
2016-11-06T12:51:52.839Z,8
2016-11-06T12:52:54.279Z,8
2016-11-06T12:53:56.220Z,8
2016-11-06T12:54:57.653Z,8
2016-11-06T12:58:02.525Z,7.9
2016-11-06T12:59:03.963Z,7.9
2016-11-06T13:00:05.905Z,7.9
2016-11-06T13:01:07.377Z,7.9
2016-11-06T13:02:08.814Z,7.9
2016-11-06T13:03:10.253Z,7.9
2016-11-06T13:04:12.194Z,7.9
2016-11-06T13:05:13.637Z,7.9
2016-11-06T13:06:15.077Z,7.9
2016-11-06T13:07:17.025Z,7.9
2016-11-06T13:08:18.465Z,7.9
2016-11-06T13:09:19.907Z,7.9
2016-11-06T13:10:21.854Z,7.9
2016-11-06T13:11:23.290Z,7.9
2016-11-06T13:12:24.731Z,7.9
2016-11-06T13:13:26.675Z,7.9
2016-11-06T13:14:28.111Z,7.9
2016-11-06T13:15:29.549Z,7.9
2016-11-06T13:16:31.489Z,7.8
2016-11-06T13:17:32.934Z,7.8
2016-11-06T13:18:34.378Z,7.8
2016-11-06T13:19:35.814Z,7.8
2016-11-06T13:20:37.752Z,7.8
2016-11-06T13:21:39.224Z,7.8
2016-11-06T13:22:40.664Z,7.8
2016-11-06T13:23:42.645Z,7.8
2016-11-06T13:24:44.122Z,7.8
2016-11-06T13:25:45.559Z,7.8
2016-11-06T13:26:46.995Z,7.8
2016-11-06T13:27:48.931Z,7.8
2016-11-06T13:28:50.375Z,7.8
2016-11-06T13:29:51.815Z,7.8
2016-11-06T13:30:53.754Z,7.9
2016-11-06T13:31:55.194Z,7.9
2016-11-06T13:32:56.631Z,7.9
2016-11-06T13:33:58.575Z,7.9
2016-11-06T13:35:00.014Z,7.9
2016-11-06T13:36:01.453Z,7.9
2016-11-06T13:37:03.406Z,7.9
2016-11-06T13:38:04.844Z,7.9
2016-11-06T13:39:06.282Z,7.9
2016-11-06T13:40:08.226Z,7.9
2016-11-06T13:41:09.678Z,7.9
2016-11-06T13:42:11.125Z,7.9
2016-11-06T13:43:12.560Z,7.9
2016-11-06T13:44:14.503Z,7.9
2016-11-06T13:45:15.940Z,7.9
2016-11-06T13:46:17.383Z,7.9
2016-11-06T13:47:19.331Z,7.9
2016-11-06T13:48:20.770Z,7.9
2016-11-06T13:49:22.208Z,7.9
2016-11-06T13:50:24.146Z,7.9
2016-11-06T13:51:25.584Z,7.9
2016-11-06T13:52:27.025Z,7.9
2016-11-06T13:53:28.967Z,7.9
2016-11-06T13:54:30.402Z,7.9
2016-11-06T13:55:31.845Z,7.9
2016-11-06T13:56:33.791Z,7.9
2016-11-06T13:57:35.232Z,7.9
2016-11-06T13:58:36.718Z,7.9
2016-11-06T13:59:38.153Z,7.9
2016-11-06T14:00:40.095Z,7.9
2016-11-06T14:02:42.936Z,7.9
2016-11-06T14:03:44.877Z,7.9
2016-11-06T14:04:46.148Z,7.9
2016-11-06T14:05:48.091Z,7.9
2016-11-06T14:06:49.533Z,7.9
2016-11-06T14:07:50.970Z,7.9
2016-11-06T14:08:52.948Z,7.9
2016-11-06T14:10:55.791Z,7.9
2016-11-06T14:11:57.372Z,7.9
2016-11-06T14:12:59.317Z,7.8
2016-11-06T14:14:00.755Z,7.8
2016-11-06T14:15:02.197Z,7.8
2016-11-06T14:16:04.138Z,7.8
2016-11-06T14:17:05.581Z,7.8
2016-11-06T14:18:07.021Z,7.8
2016-11-06T14:19:08.460Z,7.8
2016-11-06T14:20:10.404Z,7.7
2016-11-06T14:21:11.842Z,7.7
2016-11-06T14:22:13.302Z,7.7
2016-11-06T14:23:14.877Z,7.7
2016-11-06T14:24:16.822Z,7.7
2016-11-06T14:25:18.266Z,7.7
2016-11-06T14:26:19.711Z,7.7
2016-11-06T14:27:21.658Z,7.7
2016-11-06T14:28:23.107Z,7.7
2016-11-06T14:29:24.545Z,7.7
2016-11-06T14:30:26.054Z,7.7
2016-11-06T14:31:28.004Z,7.7
2016-11-06T14:32:29.445Z,7.7
2016-11-06T14:33:30.884Z,7.7
2016-11-06T14:34:32.834Z,7.7
2016-11-06T14:35:34.272Z,7.6
2016-11-06T14:36:35.713Z,7.6
2016-11-06T14:37:37.155Z,7.6
2016-11-06T14:38:39.098Z,7.6
2016-11-06T14:39:40.532Z,7.6
2016-11-06T14:40:41.974Z,7.6
2016-11-06T14:41:43.914Z,7.6
2016-11-06T14:42:45.495Z,7.6
2016-11-06T14:43:46.936Z,7.6
2016-11-06T14:44:48.382Z,7.6
2016-11-06T14:45:50.325Z,7.6
2016-11-06T14:46:51.762Z,7.5
2016-11-06T14:47:53.200Z,7.5
2016-11-06T14:48:54.640Z,7.5
2016-11-06T14:49:56.582Z,7.5
2016-11-06T14:50:58.020Z,7.5
2016-11-06T14:51:59.458Z,7.5
2016-11-06T14:53:01.401Z,7.5
2016-11-06T14:54:02.849Z,7.5
2016-11-06T14:56:06.194Z,7.4
2016-11-06T14:57:07.640Z,7.4
2016-11-06T14:59:10.488Z,7.4
2016-11-06T15:00:12.432Z,7.4
2016-11-06T15:02:15.406Z,7.3
2016-11-06T15:03:16.841Z,7.3
2016-11-06T15:04:18.789Z,7.3
2016-11-06T15:05:20.225Z,7.3
2016-11-06T15:06:21.666Z,7.3